Weather History for KMML - May, 2013

Change the Weather History Date:

Tuesday, May 14, 2013

  Actual Average Record
Temperature  
Mean Temperature 76 °F -  
Max Temperature 96 °F 71 °F 96 °F (2013)
Min Temperature 57 °F 47 °F 30 °F (2004)
Cooling Degree Days 12    
Growing Degree Days 26 (Base 50)    
Moisture  
Dew Point 42 °F    
Average Humidity 32    
Maximum Humidity 59    
Minimum Humidity 14    
Precipitation  
Precipitation 0.00 in - - ()
Sea Level Pressure  
Sea Level Pressure 29.64 in    
Wind  
Wind Speed 17 mph (West)    
Max Wind Speed 32 mph    
Max Gust Speed 39 mph    
Visibility 10 miles    
Events      
Averages and records for this station are not official NWS values.
T = Trace of Precipitation, MM = Missing Value Source: NWS Daily Summary

Daily Weather History Graph

Daily Weather History Graph

Search for Another Location

Airport or City:

Trip Planner

Search our weather history database for the weather conditions in past years. The results will help you decide how hot, cold, wet, or windy it might be!

Date:

Astronomy

May. 14, 2013 Rise Set
Actual Time 5:56 AM CDT 8:43 PM CDT
Civil Twilight 5:23 AM CDT 9:17 PM CDT
Nautical Twilight 4:40 AM CDT 9:59 PM CDT
Astronomical Twilight 3:51 AM CDT 10:49 PM CDT
Moon 9:37 AM CDT (5/14) No Moon Set
Length of Visible Light 15h 53m
Length of Day
14h 46m
Waxing Crescent, 19% of the Moon is Illuminated
May 14
Waxing Crescent
May 17
First Quarter
May 24
Full
May 31
Last Quarter
Jun 8
New

Hourly Weather History & Observations

Time (CDT) Temp. Dew Point Humidity Pressure Visibility Wind Dir Wind Speed Gust Speed Precip Events Conditions
12:15 AM 66.2 °F 42.8 °F 43% 29.72 in 10.0 mi West 10.4 mph - N/A   Clear
12:35 AM 64.4 °F 42.8 °F 45% 29.72 in 10.0 mi West 12.7 mph - N/A   Clear
12:55 AM 64.4 °F 44.6 °F 49% 29.72 in 10.0 mi West 8.1 mph - N/A   Clear
1:15 AM 64.4 °F 42.8 °F 45% 29.71 in 10.0 mi WSW 9.2 mph - N/A   Clear
1:35 AM 64.4 °F 42.8 °F 45% 29.71 in 10.0 mi WSW 9.2 mph - N/A   Clear
1:55 AM 62.6 °F 42.8 °F 48% 29.71 in 10.0 mi WSW 9.2 mph - N/A   Clear
2:15 AM 64.4 °F 42.8 °F 45% 29.71 in 10.0 mi WSW 11.5 mph - N/A   Clear
2:35 AM 62.6 °F 42.8 °F 48% 29.71 in 10.0 mi WSW 12.7 mph - N/A   Clear
2:55 AM 62.6 °F 42.8 °F 48% 29.71 in 10.0 mi SW 9.2 mph - N/A   Clear
3:15 AM 62.6 °F 42.8 °F 48% 29.70 in 10.0 mi SW 5.8 mph - N/A   Clear
3:35 AM 59.0 °F 42.8 °F 55% 29.70 in 10.0 mi SSW 8.1 mph - N/A   Clear
3:55 AM 57.2 °F 42.8 °F 59% 29.69 in 10.0 mi SSW 8.1 mph - N/A   Clear
4:15 AM 59.0 °F 42.8 °F 55% 29.68 in 10.0 mi SSW 13.8 mph - N/A   Clear
4:35 AM 60.8 °F 44.6 °F 55% 29.67 in 10.0 mi SSW 11.5 mph - N/A   Clear
4:55 AM 62.6 °F 42.8 °F 48% 29.67 in 10.0 mi SSW 13.8 mph - N/A   Clear
5:15 AM 60.8 °F 42.8 °F 52% 29.66 in 10.0 mi SSW 13.8 mph - N/A   Clear
5:35 AM 60.8 °F 42.8 °F 52% 29.65 in 10.0 mi South 10.4 mph - N/A   Clear
5:55 AM 60.8 °F 42.8 °F 52% 29.66 in 10.0 mi SSW 17.3 mph - N/A   Clear
6:15 AM 62.6 °F 42.8 °F 48% 29.65 in 10.0 mi SSW 19.6 mph 24.2 mph N/A   Clear
6:35 AM 64.4 °F 44.6 °F 49% 29.64 in 10.0 mi SSW 17.3 mph - N/A   Clear
6:55 AM 64.4 °F 44.6 °F 49% 29.63 in 10.0 mi SSW 16.1 mph - N/A   Clear
7:15 AM 66.2 °F 44.6 °F 46% 29.62 in 10.0 mi SSW 17.3 mph - N/A   Clear
7:35 AM 69.8 °F 46.4 °F 43% 29.61 in 10.0 mi SSW 15.0 mph - N/A   Clear
7:55 AM 71.6 °F 46.4 °F 41% 29.59 in 10.0 mi South 11.5 mph - N/A   Clear
8:15 AM 75.2 °F 46.4 °F 36% 29.58 in 10.0 mi South 13.8 mph - N/A   Clear
8:35 AM 80.6 °F 48.2 °F 32% 29.57 in 10.0 mi South 16.1 mph 20.7 mph N/A   Clear
8:55 AM 80.6 °F 48.2 °F 32% 29.56 in 10.0 mi SSW 20.7 mph 26.5 mph N/A   Clear
9:15 AM 82.4 °F 48.2 °F 30% 29.54 in 10.0 mi SSW 29.9 mph 39.1 mph N/A   Clear
9:35 AM 87.8 °F 50.0 °F 27% 29.53 in 10.0 mi SSW 27.6 mph 36.8 mph N/A   Clear
9:55 AM 87.8 °F 46.4 °F 24% 29.53 in 10.0 mi SW 28.8 mph 34.5 mph N/A   Clear
10:15 AM 86.0 °F 46.4 °F 25% 29.52 in 10.0 mi SW 23.0 mph 33.4 mph N/A   Clear
10:35 AM 87.8 °F 48.2 °F 25% 29.52 in 10.0 mi SW 27.6 mph 36.8 mph N/A   Clear
10:55 AM 89.6 °F 48.2 °F 24% 29.51 in 10.0 mi SW 31.1 mph 38.0 mph N/A   Clear
11:15 AM 91.4 °F 48.2 °F 23% 29.51 in 10.0 mi WSW 27.6 mph 38.0 mph N/A   Clear
11:35 AM 89.6 °F 46.4 °F 22% 29.54 in 10.0 mi WSW 24.2 mph 34.5 mph N/A   Clear
11:55 AM 89.6 °F 48.2 °F 24% 29.54 in 10.0 mi West 24.2 mph 31.1 mph N/A   Clear
12:15 PM 91.4 °F 48.2 °F 23% 29.54 in 10.0 mi West 23.0 mph 28.8 mph N/A   Clear
12:35 PM 91.4 °F 48.2 °F 23% 29.55 in 10.0 mi WNW 20.7 mph 29.9 mph N/A   Clear
12:55 PM 91.4 °F 48.2 °F 23% 29.55 in 10.0 mi West 23.0 mph 29.9 mph N/A   Clear
1:15 PM 93.2 °F 48.2 °F 21% 29.55 in 10.0 mi West 25.3 mph 34.5 mph N/A   Clear
1:35 PM 93.2 °F 48.2 °F 21% 29.55 in 10.0 mi NW 24.2 mph 33.4 mph N/A   Clear
1:55 PM 95.0 °F 48.2 °F 20% 29.56 in 10.0 mi NW 24.2 mph 36.8 mph N/A   Clear
2:15 PM 93.2 °F 48.2 °F 21% 29.57 in 10.0 mi NW 23.0 mph 33.4 mph N/A   Clear
2:35 PM 95.0 °F 44.6 °F 18% 29.56 in 10.0 mi NNW 32.2 mph - N/A   Clear
2:55 PM 96.8 °F 46.4 °F 18% 29.58 in 10.0 mi NNW 23.0 mph 29.9 mph N/A   Clear
3:15 PM 95.0 °F 42.8 °F 16% 29.59 in 10.0 mi NW 25.3 mph 35.7 mph N/A   Clear
3:35 PM 93.2 °F 42.8 °F 17% 29.59 in 10.0 mi NW 26.5 mph 35.7 mph N/A   Clear
3:55 PM 93.2 °F 42.8 °F 17% 29.59 in 10.0 mi NW 29.9 mph 38.0 mph N/A   Clear
4:15 PM 93.2 °F 42.8 °F 17% 29.60 in 10.0 mi NW 28.8 mph 38.0 mph N/A   Clear
4:35 PM 93.2 °F 42.8 °F 17% 29.61 in 10.0 mi NNW 25.3 mph 36.8 mph N/A   Clear
4:55 PM 91.4 °F 39.2 °F 16% 29.62 in 10.0 mi WNW 28.8 mph 35.7 mph N/A   Clear
5:15 PM 91.4 °F 37.4 °F 15% 29.62 in 10.0 mi NW 31.1 mph 36.8 mph N/A   Clear
5:35 PM 89.6 °F 37.4 °F 16% 29.63 in 10.0 mi NW 31.1 mph 38.0 mph N/A   Clear
5:55 PM 87.8 °F 33.8 °F 15% 29.64 in 10.0 mi NW 25.3 mph 35.7 mph N/A   Clear
6:15 PM 86.0 °F 33.8 °F 15% 29.65 in 10.0 mi NW 28.8 mph 33.4 mph N/A   Clear
6:35 PM 84.2 °F 30.2 °F 14% 29.65 in 10.0 mi NW 25.3 mph 39.1 mph N/A   Clear
6:55 PM 84.2 °F 30.2 °F 14% 29.66 in 10.0 mi NW 23.0 mph 29.9 mph N/A   Clear
7:15 PM 84.2 °F 30.2 °F 14% 29.66 in 10.0 mi NW 26.5 mph 31.1 mph N/A   Clear
7:35 PM 82.4 °F 30.2 °F 15% 29.67 in 10.0 mi NW 18.4 mph 26.5 mph N/A   Clear
7:55 PM 80.6 °F 32.0 °F 17% 29.67 in 10.0 mi NW 19.6 mph 28.8 mph N/A   Clear
8:15 PM 78.8 °F 32.0 °F 18% 29.68 in 10.0 mi NW 17.3 mph - N/A   Clear
8:35 PM 75.2 °F 33.8 °F 22% 29.68 in 10.0 mi NW 12.7 mph - N/A   Clear
8:55 PM 77.0 °F 32.0 °F 19% 29.70 in 10.0 mi NW 16.1 mph - N/A   Clear
9:15 PM 75.2 °F 33.8 °F 22% 29.71 in 10.0 mi NW 18.4 mph - N/A   Clear
9:35 PM 73.4 °F 35.6 °F 25% 29.73 in 10.0 mi NNW 18.4 mph 23.0 mph N/A   Clear
9:55 PM 71.6 °F 39.2 °F 31% 29.75 in 10.0 mi NNW 16.1 mph - N/A   Clear
10:15 PM 71.6 °F 39.2 °F 31% 29.77 in 10.0 mi NNW 24.2 mph 32.2 mph N/A   Clear
10:35 PM 69.8 °F 42.8 °F 38% 29.78 in 10.0 mi NNW 18.4 mph 29.9 mph N/A   Clear
10:55 PM 68.0 °F 42.8 °F 40% 29.78 in 10.0 mi NNW 20.7 mph 27.6 mph N/A   Clear
11:15 PM 66.2 °F 42.8 °F 43% 29.80 in 10.0 mi NW 17.3 mph - N/A   Clear
11:35 PM 64.4 °F 42.8 °F 45% 29.81 in 10.0 mi NNW 17.3 mph - N/A   Clear
11:55 PM 64.4 °F 41.0 °F 42% 29.82 in 10.0 mi NNW 17.3 mph - N/A   Clear